首页
METAR-TAF:

METAR-TAF

机场 :

南锡, 法国

纬度: 48-41N, 经度: 006-13E, 海拔: 225米

当前天气观测

该预报发布于27分钟前的23:00 UTC
风速10节,风向西南,在西转西南之间变化
温度 6°C
湿度 87%
气压 1024 hPa
能见度10公里或以上
少量云层高于1800英尺
多云层高于12000英尺

METAR: LFSN 172300Z AUTO 22010KT 190V250 9999 FEW018 BKN120 06/04 Q1024

时间: 00:27 (23:27 UTC)


TAF: 丢失

超过4000个机场的气象观测和天气预报(METAR&TAF报告)。

可查询的气象台以黄色和红色小点在地图上表示。

将鼠标移到小点上方,可查看气象台名称。

然后点击查看天气观测和预报。

如需切换地图:点击带黑十字的绿色按钮放大地图;点击带横线的绿色按钮缩小地图;或者点击绿色箭头查看邻近地区的地图。


METAR-TAF: